createdAt,value
2022-09-10T00:00:32.855Z,15.6
2022-09-10T00:01:42.030Z,15.8
2022-09-10T00:02:51.230Z,15.7
2022-09-10T00:04:00.439Z,15.7
2022-09-10T00:05:09.553Z,15.7
2022-09-10T00:06:18.763Z,15.7
2022-09-10T00:07:27.890Z,15.7
2022-09-10T00:08:37.064Z,15.6
2022-09-10T00:09:46.368Z,15.5
2022-09-10T00:12:03.708Z,15.6
2022-09-10T00:13:12.815Z,15.6
2022-09-10T00:14:21.955Z,15.5
2022-09-10T00:15:31.163Z,15.6
2022-09-10T00:16:40.421Z,15.7
2022-09-10T00:17:49.553Z,15.6
2022-09-10T00:18:58.739Z,15.6
2022-09-10T00:20:07.864Z,15.6
2022-09-10T00:21:17.127Z,15.6
2022-09-10T00:22:26.273Z,15.7
2022-09-10T00:23:35.321Z,15.6
2022-09-10T00:24:44.503Z,15.7
2022-09-10T00:25:52.703Z,15.7
2022-09-10T00:27:01.891Z,15.7
2022-09-10T00:28:11.024Z,15.6
2022-09-10T00:29:20.202Z,15.6
2022-09-10T00:30:29.404Z,15.6
2022-09-10T00:31:38.671Z,15.6
2022-09-10T00:32:47.818Z,15.6
2022-09-10T00:33:56.894Z,15.6
2022-09-10T00:35:06.134Z,15.6
2022-09-10T00:36:15.244Z,15.5
2022-09-10T00:37:24.536Z,15.5
2022-09-10T00:38:33.659Z,15.5
2022-09-10T00:39:42.764Z,15.5
2022-09-10T00:40:51.068Z,15.6
2022-09-10T00:42:00.179Z,15.6
2022-09-10T00:43:09.289Z,15.6
2022-09-10T00:44:18.567Z,15.6
2022-09-10T00:45:27.661Z,15.7
2022-09-10T00:46:36.901Z,15.8
2022-09-10T00:47:46.011Z,15.8
2022-09-10T00:48:55.159Z,15.8
2022-09-10T00:50:04.323Z,15.6
2022-09-10T00:51:13.610Z,15.7
2022-09-10T00:52:22.798Z,15.6
2022-09-10T00:53:31.836Z,15.7
2022-09-10T00:54:41.016Z,15.7
2022-09-10T00:55:49.320Z,15.8
2022-09-10T00:56:58.370Z,15.7
2022-09-10T00:58:07.649Z,15.8
2022-09-10T00:59:16.837Z,15.7
2022-09-10T01:00:25.890Z,15.8
2022-09-10T01:01:35.065Z,15.8
2022-09-10T01:02:44.386Z,15.9
2022-09-10T01:03:53.483Z,15.9
2022-09-10T01:05:02.578Z,16
2022-09-10T01:06:11.747Z,15.9
2022-09-10T01:07:20.918Z,15.8
2022-09-10T01:08:30.210Z,15.9
2022-09-10T01:09:39.321Z,15.8
2022-09-10T01:10:47.525Z,15.9
2022-09-10T01:11:56.625Z,15.9
2022-09-10T01:13:05.898Z,16
2022-09-10T01:14:15.049Z,15.9
2022-09-10T01:15:24.252Z,16
2022-09-10T01:16:33.422Z,15.9
2022-09-10T01:17:42.591Z,16
2022-09-10T01:18:51.777Z,15.9
2022-09-10T01:20:00.833Z,16
2022-09-10T01:21:10.141Z,16
2022-09-10T01:22:19.189Z,15.9
2022-09-10T01:24:37.626Z,15.9
2022-09-10T01:26:55.981Z,16
2022-09-10T01:28:04.069Z,16
2022-09-10T01:29:13.346Z,16
2022-09-10T01:30:22.443Z,15.8
2022-09-10T01:31:31.679Z,15.8
2022-09-10T01:32:40.773Z,15.7
2022-09-10T01:33:49.952Z,15.7
2022-09-10T01:34:59.185Z,15.7
2022-09-10T01:36:08.373Z,15.7
2022-09-10T01:37:17.567Z,15.7
2022-09-10T01:38:26.625Z,15.8
2022-09-10T01:39:35.937Z,15.8
2022-09-10T01:40:45.077Z,15.8
2022-09-10T01:41:54.234Z,15.7
2022-09-10T01:43:02.318Z,15.7
2022-09-10T01:44:11.496Z,15.7
2022-09-10T01:45:20.673Z,15.8
2022-09-10T01:46:29.841Z,15.6
2022-09-10T01:47:39.109Z,15.6
2022-09-10T01:48:48.228Z,15.7
2022-09-10T01:49:57.375Z,15.7
2022-09-10T01:51:06.625Z,15.6
2022-09-10T01:52:15.733Z,15.6
2022-09-10T01:53:24.935Z,15.6
2022-09-10T01:54:34.089Z,15.6
2022-09-10T01:55:43.278Z,15.6
2022-09-10T01:56:52.422Z,15.6
2022-09-10T01:58:00.580Z,15.5
2022-09-10T01:59:09.746Z,15.6
2022-09-10T02:00:18.935Z,15.7
2022-09-10T02:01:28.100Z,15.8
2022-09-10T02:02:37.272Z,15.7
2022-09-10T02:03:46.528Z,15.7
2022-09-10T02:04:55.618Z,15.7
2022-09-10T02:06:04.864Z,15.7
2022-09-10T02:07:14.083Z,15.7
2022-09-10T02:08:23.160Z,15.7
2022-09-10T02:09:32.311Z,15.8
2022-09-10T02:10:41.476Z,15.7
2022-09-10T02:11:50.670Z,15.7
2022-09-10T02:12:58.930Z,15.6
2022-09-10T02:14:08.130Z,15.6
2022-09-10T02:15:17.201Z,15.7
2022-09-10T02:16:26.460Z,15.8
2022-09-10T02:17:35.608Z,15.7
2022-09-10T02:18:44.729Z,15.7
2022-09-10T02:19:53.880Z,15.6
2022-09-10T02:21:03.077Z,15.6
2022-09-10T02:22:12.341Z,15.7
2022-09-10T02:23:21.411Z,15.7
2022-09-10T02:24:30.665Z,15.7
2022-09-10T02:25:39.846Z,15.7
2022-09-10T02:26:48.904Z,15.7
2022-09-10T02:27:57.130Z,15.6
2022-09-10T02:29:06.371Z,15.6
2022-09-10T02:30:15.546Z,15.7
2022-09-10T02:31:24.709Z,15.6
2022-09-10T02:32:33.910Z,15.8
2022-09-10T02:33:42.965Z,15.7
2022-09-10T02:34:52.280Z,15.6
2022-09-10T02:36:01.343Z,15.7
2022-09-10T02:37:10.531Z,15.7
2022-09-10T02:38:19.706Z,15.8
2022-09-10T02:39:28.854Z,15.8
2022-09-10T02:40:38.033Z,15.7
2022-09-10T02:41:47.257Z,15.7
2022-09-10T02:42:55.491Z,15.7
2022-09-10T02:44:04.522Z,15.7
2022-09-10T02:45:13.768Z,15.7
2022-09-10T02:46:22.991Z,15.6
2022-09-10T02:47:32.090Z,15.6
2022-09-10T02:48:41.227Z,15.6
2022-09-10T02:49:50.423Z,15.6
2022-09-10T02:50:59.563Z,15.7
2022-09-10T02:52:08.737Z,15.6
2022-09-10T02:53:17.910Z,15.5
2022-09-10T02:54:27.088Z,15.6
2022-09-10T02:55:36.313Z,15.5
2022-09-10T02:56:45.456Z,15.5
2022-09-10T02:57:53.637Z,15.5
2022-09-10T02:59:02.807Z,15.5
2022-09-10T03:00:11.973Z,15.6
2022-09-10T03:01:21.136Z,15.6
2022-09-10T03:02:30.313Z,15.5
2022-09-10T03:03:39.497Z,15.5
2022-09-10T03:04:48.676Z,15.5
2022-09-10T03:05:57.819Z,15.6
2022-09-10T03:07:07.007Z,15.5
2022-09-10T03:08:16.164Z,15.5
2022-09-10T03:09:25.364Z,15.5
2022-09-10T03:10:34.521Z,15.5
2022-09-10T03:11:43.695Z,15.5
2022-09-10T03:12:51.883Z,15.5
2022-09-10T03:14:01.061Z,15.5
2022-09-10T03:15:10.220Z,15.5
2022-09-10T03:16:19.390Z,15.5
2022-09-10T03:17:28.567Z,15.5
2022-09-10T03:18:37.738Z,15.5
2022-09-10T03:19:45.936Z,15.5
2022-09-10T03:20:55.102Z,15.5
2022-09-10T03:22:04.293Z,15.5
2022-09-10T03:23:13.439Z,15.4
2022-09-10T03:24:22.613Z,15.5
2022-09-10T03:25:31.799Z,15.5
2022-09-10T03:26:40.963Z,15.4
2022-09-10T03:27:50.140Z,15.4
2022-09-10T03:28:59.347Z,15.4
2022-09-10T03:30:08.483Z,15.5
2022-09-10T03:32:26.823Z,15.5
2022-09-10T03:33:36.005Z,15.5
2022-09-10T03:34:44.188Z,15.5
2022-09-10T03:35:53.362Z,15.5
2022-09-10T03:37:02.542Z,15.6
2022-09-10T03:38:11.715Z,15.5
2022-09-10T03:39:20.891Z,15.5
2022-09-10T03:40:30.054Z,15.5
2022-09-10T03:41:39.227Z,15.5
2022-09-10T03:42:48.397Z,15.4
2022-09-10T03:43:57.563Z,15.4
2022-09-10T03:45:06.760Z,15.4
2022-09-10T03:46:15.928Z,15.4
2022-09-10T03:47:25.092Z,15.4
2022-09-10T03:48:34.260Z,15.3
2022-09-10T03:49:42.454Z,15.4
2022-09-10T03:50:51.763Z,15.4
2022-09-10T03:52:00.807Z,15.4
2022-09-10T03:53:09.998Z,15.4
2022-09-10T03:54:19.129Z,15.4
2022-09-10T03:55:28.305Z,15.3
2022-09-10T03:56:37.477Z,15.3
2022-09-10T03:57:46.672Z,15.3
2022-09-10T03:58:55.833Z,15.4
2022-09-10T04:00:05.000Z,15.3
2022-09-10T04:01:14.171Z,15.4
2022-09-10T04:02:23.358Z,15.3
2022-09-10T04:03:32.519Z,15.3
2022-09-10T04:04:40.698Z,15.3
2022-09-10T04:05:49.877Z,15.4
2022-09-10T04:06:59.062Z,15.4
2022-09-10T04:08:08.252Z,15.5
2022-09-10T04:09:17.468Z,15.4
2022-09-10T04:10:26.623Z,15.5
2022-09-10T04:11:35.767Z,15.5
2022-09-10T04:12:44.906Z,15.7
2022-09-10T04:13:54.092Z,15.6
2022-09-10T04:15:03.272Z,15.6
2022-09-10T04:16:12.473Z,15.7
2022-09-10T04:17:21.603Z,15.8
2022-09-10T04:18:30.778Z,15.8
2022-09-10T04:19:38.965Z,15.9
2022-09-10T04:20:48.138Z,15.9
2022-09-10T04:21:57.309Z,15.8
2022-09-10T04:23:06.483Z,15.8
2022-09-10T04:24:15.692Z,15.7
2022-09-10T04:25:24.823Z,15.7
2022-09-10T04:26:34.008Z,15.8
2022-09-10T04:27:43.174Z,15.7
2022-09-10T04:28:52.345Z,15.7
2022-09-10T04:30:01.519Z,15.5
2022-09-10T04:31:10.750Z,15.6
2022-09-10T04:32:19.854Z,15.6
2022-09-10T04:33:29.041Z,15.6
2022-09-10T04:34:37.227Z,15.5
2022-09-10T04:35:46.398Z,15.6
2022-09-10T04:36:55.581Z,15.6
2022-09-10T04:38:04.734Z,15.7
2022-09-10T04:39:13.917Z,15.5
2022-09-10T04:40:23.089Z,15.6
2022-09-10T04:41:32.258Z,15.6
2022-09-10T04:42:41.441Z,15.6
2022-09-10T04:43:50.648Z,15.6
2022-09-10T04:44:59.775Z,15.5
2022-09-10T04:46:08.943Z,15.6
2022-09-10T04:47:18.153Z,15.6
2022-09-10T04:48:27.296Z,15.7
2022-09-10T04:49:36.460Z,15.8
2022-09-10T04:50:44.661Z,15.7
2022-09-10T04:51:53.845Z,15.7
2022-09-10T04:53:03.004Z,15.6
2022-09-10T04:54:12.174Z,15.6
2022-09-10T04:55:21.349Z,15.7
2022-09-10T04:56:30.526Z,15.7
2022-09-10T04:57:39.698Z,15.7
2022-09-10T04:58:48.858Z,15.6
2022-09-10T04:59:58.042Z,15.5
2022-09-10T05:01:07.295Z,15.6
2022-09-10T05:02:16.369Z,15.6
2022-09-10T05:03:25.581Z,15.6
2022-09-10T05:04:34.733Z,15.6
2022-09-10T05:05:42.919Z,15.6
2022-09-10T05:06:52.094Z,15.6
2022-09-10T05:08:01.256Z,15.6
2022-09-10T05:09:10.431Z,15.6
2022-09-10T05:10:19.599Z,15.6
2022-09-10T05:11:28.771Z,15.6
2022-09-10T05:12:37.943Z,15.6
2022-09-10T05:13:47.111Z,15.5
2022-09-10T05:14:56.307Z,15.6
2022-09-10T05:16:05.465Z,15.6
2022-09-10T05:17:14.665Z,15.6
2022-09-10T05:18:23.839Z,15.5
2022-09-10T05:19:33.017Z,15.6
2022-09-10T05:20:41.203Z,15.6
2022-09-10T05:21:50.373Z,15.6
2022-09-10T05:22:59.541Z,15.6
2022-09-10T05:24:08.719Z,15.6
2022-09-10T05:25:17.895Z,15.7
2022-09-10T05:26:27.080Z,15.7
2022-09-10T05:27:36.239Z,15.6
2022-09-10T05:28:45.420Z,15.6
2022-09-10T05:31:03.748Z,15.6
2022-09-10T05:32:12.978Z,15.7
2022-09-10T05:33:22.121Z,15.7
2022-09-10T05:34:31.276Z,15.7
2022-09-10T05:35:39.459Z,15.7
2022-09-10T05:36:48.632Z,15.6
2022-09-10T05:37:57.800Z,15.6
2022-09-10T05:39:07.007Z,15.5
2022-09-10T05:40:16.148Z,15.6
2022-09-10T05:41:25.321Z,15.6
2022-09-10T05:42:34.495Z,15.5
2022-09-10T05:43:43.668Z,15.6
2022-09-10T05:44:52.864Z,15.5
2022-09-10T05:46:02.010Z,15.6
2022-09-10T05:47:11.195Z,15.6
2022-09-10T05:48:20.362Z,15.7
2022-09-10T05:49:29.517Z,15.6
2022-09-10T05:50:37.714Z,15.6
2022-09-10T05:51:46.881Z,15.6
2022-09-10T05:52:56.082Z,15.6
2022-09-10T05:54:05.238Z,15.7
2022-09-10T05:55:14.409Z,15.7
2022-09-10T05:56:23.577Z,15.8
2022-09-10T05:57:32.760Z,15.8
2022-09-10T05:58:41.923Z,15.7
2022-09-10T05:59:51.099Z,15.8
2022-09-10T06:01:00.313Z,15.9
2022-09-10T06:02:09.442Z,15.8
2022-09-10T06:03:18.617Z,15.9
2022-09-10T06:04:27.789Z,15.8
2022-09-10T06:05:35.985Z,15.7
2022-09-10T06:06:45.154Z,15.7
2022-09-10T06:07:54.388Z,15.7
2022-09-10T06:09:03.541Z,15.8
2022-09-10T06:10:12.703Z,15.7
2022-09-10T06:11:21.844Z,15.8
2022-09-10T06:12:31.009Z,15.6
2022-09-10T06:13:40.194Z,15.7
2022-09-10T06:14:49.354Z,15.8
2022-09-10T06:15:58.532Z,15.7
2022-09-10T06:17:07.702Z,15.7
2022-09-10T06:18:16.881Z,15.7
2022-09-10T06:19:26.052Z,15.7
2022-09-10T06:20:34.237Z,15.8
2022-09-10T06:22:52.580Z,15.8
2022-09-10T06:24:01.758Z,15.6
2022-09-10T06:25:10.930Z,15.7
2022-09-10T06:26:20.102Z,15.6
2022-09-10T06:27:29.276Z,15.7
2022-09-10T06:28:38.451Z,15.8
2022-09-10T06:29:47.622Z,15.9
2022-09-10T06:30:56.786Z,15.8
2022-09-10T06:32:05.967Z,15.8
2022-09-10T06:33:15.130Z,16
2022-09-10T06:34:24.307Z,16
2022-09-10T06:35:32.504Z,16
2022-09-10T06:37:50.834Z,16
2022-09-10T06:39:00.023Z,16
2022-09-10T06:40:09.183Z,16
2022-09-10T06:41:18.363Z,15.9
2022-09-10T06:42:27.532Z,16
2022-09-10T06:43:36.707Z,16.1
2022-09-10T06:44:45.871Z,16.1
2022-09-10T06:45:55.043Z,16
2022-09-10T06:47:04.222Z,16
2022-09-10T06:48:13.382Z,16
2022-09-10T06:49:22.576Z,16.1
2022-09-10T06:50:30.765Z,16.1
2022-09-10T06:51:39.921Z,16
2022-09-10T06:52:49.104Z,16
2022-09-10T06:53:58.273Z,16.1
2022-09-10T06:55:07.452Z,16.1
2022-09-10T06:56:16.623Z,16
2022-09-10T06:57:25.782Z,15.9
2022-09-10T06:58:34.968Z,16
2022-09-10T06:59:44.131Z,16
2022-09-10T07:00:53.308Z,16
2022-09-10T07:02:02.472Z,15.9
2022-09-10T07:03:11.656Z,15.9
2022-09-10T07:04:20.828Z,15.7
2022-09-10T07:05:29.012Z,15.9
2022-09-10T07:06:38.180Z,15.9
2022-09-10T07:07:47.358Z,15.8
2022-09-10T07:08:56.574Z,16
2022-09-10T07:10:05.695Z,15.8
2022-09-10T07:11:13.900Z,15.8
2022-09-10T07:12:23.067Z,15.9
2022-09-10T07:13:32.239Z,15.9
2022-09-10T07:14:41.428Z,15.8
2022-09-10T07:15:50.583Z,15.7
2022-09-10T07:16:59.750Z,15.8
2022-09-10T07:18:08.926Z,15.7
2022-09-10T07:19:18.108Z,15.7
2022-09-10T07:20:27.276Z,15.7
2022-09-10T07:21:36.453Z,15.8
2022-09-10T07:22:45.618Z,15.8
2022-09-10T07:23:54.788Z,16
2022-09-10T07:25:03.960Z,16.1
2022-09-10T07:26:12.155Z,15.9
2022-09-10T07:27:21.329Z,16
2022-09-10T07:28:30.497Z,16
2022-09-10T07:29:39.664Z,15.9
2022-09-10T07:30:48.852Z,16
2022-09-10T07:31:58.010Z,16
2022-09-10T07:33:07.189Z,15.9
2022-09-10T07:34:16.362Z,15.9
2022-09-10T07:35:25.530Z,16
2022-09-10T07:36:34.711Z,16.1
2022-09-10T07:37:43.874Z,16
2022-09-10T07:38:53.056Z,16
2022-09-10T07:40:02.231Z,16.2
2022-09-10T07:41:10.412Z,16.2
2022-09-10T07:42:19.597Z,16.2
2022-09-10T07:43:28.765Z,16.1
2022-09-10T07:44:37.922Z,16.3
2022-09-10T07:45:47.117Z,16.1
2022-09-10T07:46:56.278Z,16.1
2022-09-10T07:48:05.447Z,16.2
2022-09-10T07:49:14.618Z,16.1
2022-09-10T07:50:23.792Z,16.1
2022-09-10T07:51:32.972Z,16.2
2022-09-10T07:52:42.143Z,16.2
2022-09-10T07:53:51.313Z,16.2
2022-09-10T07:55:00.480Z,16.3
2022-09-10T07:56:08.721Z,16.3
2022-09-10T07:57:17.837Z,16.4
2022-09-10T07:58:27.011Z,16.3
2022-09-10T07:59:36.189Z,16.1
2022-09-10T08:00:45.359Z,16.2
2022-09-10T08:01:54.559Z,16.3
2022-09-10T08:03:03.703Z,16.3
2022-09-10T08:04:12.936Z,16.3
2022-09-10T08:05:22.085Z,16.4
2022-09-10T08:06:31.273Z,16.5
2022-09-10T08:07:40.431Z,16.6
2022-09-10T08:08:49.574Z,16.5
2022-09-10T08:09:58.734Z,16.6
2022-09-10T08:11:06.935Z,16.5
2022-09-10T08:12:16.120Z,16.4
2022-09-10T08:13:25.274Z,16.6
2022-09-10T08:14:34.445Z,16.6
2022-09-10T08:15:43.623Z,16.6
2022-09-10T08:16:52.805Z,16.7
2022-09-10T08:18:01.960Z,16.6
2022-09-10T08:19:11.127Z,16.6
2022-09-10T08:21:29.479Z,16.5
2022-09-10T08:22:38.653Z,16.5
2022-09-10T08:23:47.830Z,16.6
2022-09-10T08:24:56.998Z,16.6
2022-09-10T08:26:05.186Z,16.5
2022-09-10T08:27:14.361Z,16.6
2022-09-10T08:28:23.537Z,16.7
2022-09-10T08:29:32.707Z,16.5
2022-09-10T08:30:41.879Z,16.6
2022-09-10T08:31:51.062Z,16.7
2022-09-10T08:33:00.239Z,16.6
2022-09-10T08:34:09.404Z,16.8
2022-09-10T08:35:18.568Z,17
2022-09-10T08:36:27.811Z,17.3
2022-09-10T08:37:36.917Z,17.6
2022-09-10T08:38:46.103Z,18
2022-09-10T08:39:55.266Z,18.7
2022-09-10T08:41:03.454Z,18
2022-09-10T08:43:21.798Z,17.6
2022-09-10T08:44:30.965Z,18.2
2022-09-10T08:45:40.142Z,17.9
2022-09-10T08:46:49.306Z,17.6
2022-09-10T08:47:58.489Z,17.3
2022-09-10T08:49:06.683Z,17.4
2022-09-10T08:50:14.865Z,17.5
2022-09-10T08:51:24.029Z,17.7
2022-09-10T08:52:33.204Z,17.9
2022-09-10T08:53:42.386Z,17.6
2022-09-10T08:54:50.583Z,17.5
2022-09-10T08:55:58.769Z,17.4
2022-09-10T08:57:07.937Z,17.2
2022-09-10T08:58:17.120Z,17.2
2022-09-10T08:59:26.295Z,17.3
2022-09-10T09:00:35.450Z,17.3
2022-09-10T09:01:44.624Z,17.1
2022-09-10T09:02:53.792Z,17.1
2022-09-10T09:04:02.978Z,17
2022-09-10T09:05:12.168Z,17.1
2022-09-10T09:06:21.311Z,17.2
2022-09-10T09:07:30.518Z,17.1
2022-09-10T09:08:39.694Z,17
2022-09-10T09:09:48.829Z,16.9
2022-09-10T09:10:57.026Z,17
2022-09-10T09:12:06.192Z,17
2022-09-10T09:13:15.362Z,17
2022-09-10T09:14:24.546Z,17.1
2022-09-10T09:15:33.711Z,17.3
2022-09-10T09:16:42.886Z,17.3
2022-09-10T09:17:52.084Z,17.2
2022-09-10T09:19:01.234Z,17.1
2022-09-10T09:20:10.421Z,17.2
2022-09-10T09:21:19.580Z,17.3
2022-09-10T09:22:28.760Z,17.4
2022-09-10T09:23:37.917Z,17.3
2022-09-10T09:24:47.100Z,17.5
2022-09-10T09:25:55.278Z,17.7
2022-09-10T09:27:04.450Z,17.8
2022-09-10T09:28:13.627Z,17.7
2022-09-10T09:29:22.801Z,17.9
2022-09-10T09:30:31.980Z,18.4
2022-09-10T09:31:41.151Z,19.3
2022-09-10T09:32:50.314Z,20.1
2022-09-10T09:33:59.495Z,20.5
2022-09-10T09:35:08.654Z,20.3
2022-09-10T09:36:17.842Z,20.1
2022-09-10T09:37:27.004Z,19.2
2022-09-10T09:39:45.358Z,19.6
2022-09-10T09:40:53.542Z,19.2
2022-09-10T09:42:02.706Z,18.6
2022-09-10T09:43:11.895Z,19.1
2022-09-10T09:44:21.098Z,19.1
2022-09-10T09:45:30.227Z,18.2
2022-09-10T09:46:39.401Z,18.4
2022-09-10T09:47:48.579Z,19.1
2022-09-10T09:48:57.751Z,19.2
2022-09-10T09:50:06.989Z,19.1
2022-09-10T09:51:16.091Z,19.9
2022-09-10T09:52:25.281Z,19.7
2022-09-10T09:53:34.441Z,18.9
2022-09-10T09:54:43.600Z,18.8
2022-09-10T09:55:51.833Z,19.4
2022-09-10T09:57:01.077Z,18.8
2022-09-10T09:58:10.138Z,18.6
2022-09-10T09:59:19.312Z,18.8
2022-09-10T10:00:28.484Z,18.6
2022-09-10T10:01:37.668Z,18.4
2022-09-10T10:02:46.818Z,18.4
2022-09-10T10:03:56.004Z,18.5
2022-09-10T10:05:05.193Z,18.6
2022-09-10T10:06:14.376Z,18.8
2022-09-10T10:07:23.614Z,19.2
2022-09-10T10:08:32.687Z,19.3
2022-09-10T10:09:41.886Z,19.5
2022-09-10T10:10:50.044Z,19.2
2022-09-10T10:11:59.230Z,19.2
2022-09-10T10:13:08.391Z,19.2
2022-09-10T10:14:17.587Z,19.2
2022-09-10T10:15:26.783Z,19
2022-09-10T10:16:35.956Z,18.6
2022-09-10T10:17:45.138Z,18.5
2022-09-10T10:18:54.262Z,18.7
2022-09-10T10:20:03.433Z,19
2022-09-10T10:21:12.602Z,19.1
2022-09-10T10:22:21.775Z,19.5
2022-09-10T10:23:30.943Z,18.8
2022-09-10T10:24:40.145Z,18.6
2022-09-10T10:25:48.321Z,18.5
2022-09-10T10:26:57.477Z,18.7
2022-09-10T10:28:06.685Z,18.9
2022-09-10T10:29:15.825Z,18.7
2022-09-10T10:30:24.994Z,18.8
2022-09-10T10:31:34.180Z,18.8
2022-09-10T10:32:43.332Z,18.8
2022-09-10T10:33:52.510Z,18.7
2022-09-10T10:35:01.691Z,18.6
2022-09-10T10:36:10.859Z,18.6
2022-09-10T10:37:20.035Z,18.5
2022-09-10T10:38:29.218Z,18.5
2022-09-10T10:39:38.373Z,18.5
2022-09-10T10:41:55.741Z,18.6
2022-09-10T10:43:04.914Z,18.6
2022-09-10T10:44:14.097Z,18.5
2022-09-10T10:45:23.267Z,18.4
2022-09-10T10:46:32.422Z,18.4
2022-09-10T10:47:41.606Z,18.4
2022-09-10T10:48:50.773Z,18.6
2022-09-10T10:49:59.942Z,18.7
2022-09-10T10:51:09.114Z,18.7
2022-09-10T10:52:18.293Z,18.8
2022-09-10T10:53:27.465Z,18.7
2022-09-10T10:54:36.627Z,18.6
2022-09-10T10:55:44.811Z,18.6
2022-09-10T10:56:53.989Z,18.7
2022-09-10T10:58:03.169Z,18.8
2022-09-10T10:59:12.351Z,18.7
2022-09-10T11:00:21.511Z,18.8
2022-09-10T11:01:30.706Z,18.8
2022-09-10T11:02:38.870Z,18.9
2022-09-10T11:03:48.111Z,18.9
2022-09-10T11:04:57.217Z,19.1
2022-09-10T11:06:06.399Z,19.2
2022-09-10T11:07:15.655Z,19.2
2022-09-10T11:08:24.748Z,19.2
2022-09-10T11:09:33.911Z,19
2022-09-10T11:10:43.073Z,18.9
2022-09-10T11:11:52.288Z,18.8
2022-09-10T11:13:01.446Z,19
2022-09-10T11:14:10.600Z,19
2022-09-10T11:15:19.780Z,18.9
2022-09-10T11:16:29.042Z,18.8
2022-09-10T11:17:38.126Z,18.8
2022-09-10T11:18:46.343Z,18.6
2022-09-10T11:21:04.662Z,18.5
2022-09-10T11:22:13.835Z,18.6
2022-09-10T11:23:23.002Z,18.7
2022-09-10T11:24:32.261Z,18.8
2022-09-10T11:25:41.366Z,18.8
2022-09-10T11:26:50.562Z,18.9
2022-09-10T11:27:59.730Z,18.8
2022-09-10T11:29:08.865Z,18.7
2022-09-10T11:30:18.019Z,18.6
2022-09-10T11:31:27.199Z,18.5
2022-09-10T11:32:36.391Z,18.5
2022-09-10T11:33:44.558Z,18.6
2022-09-10T11:34:53.738Z,18.5
2022-09-10T11:36:02.912Z,18.5
2022-09-10T11:37:12.073Z,18.5
2022-09-10T11:38:21.246Z,18.4
2022-09-10T11:39:30.428Z,18.3
2022-09-10T11:40:39.587Z,18.4
2022-09-10T11:41:48.775Z,18.5
2022-09-10T11:42:57.938Z,18.3
2022-09-10T11:44:07.112Z,18.4
2022-09-10T11:45:16.283Z,18.6
2022-09-10T11:46:25.468Z,18.7
2022-09-10T11:47:34.626Z,18.6
2022-09-10T11:48:42.821Z,18.6
2022-09-10T11:49:51.988Z,18.4
2022-09-10T11:51:01.170Z,18.3
2022-09-10T11:52:10.334Z,18.4
2022-09-10T11:53:19.502Z,18.5
2022-09-10T11:55:37.855Z,18.6
2022-09-10T11:56:47.018Z,18.5
2022-09-10T11:57:56.217Z,18.5
2022-09-10T11:59:04.385Z,18.3
2022-09-10T12:00:12.586Z,18.5
2022-09-10T12:01:21.751Z,18.6
2022-09-10T12:02:30.918Z,18.7
2022-09-10T12:03:40.089Z,18.6
2022-09-10T12:04:49.290Z,18.7
2022-09-10T12:05:58.451Z,18.7
2022-09-10T12:07:07.620Z,18.7
2022-09-10T12:08:16.776Z,18.7
2022-09-10T12:09:25.956Z,18.8
2022-09-10T12:10:35.132Z,18.7
2022-09-10T12:11:43.316Z,18.8
2022-09-10T12:12:51.515Z,18.8
2022-09-10T12:14:00.722Z,18.8
2022-09-10T12:15:09.856Z,19
2022-09-10T12:16:19.030Z,18.9
2022-09-10T12:17:28.191Z,19
2022-09-10T12:18:37.367Z,19.1
2022-09-10T12:19:46.543Z,19.1
2022-09-10T12:20:55.719Z,19.1
2022-09-10T12:22:04.879Z,18.9
2022-09-10T12:23:14.058Z,18.8
2022-09-10T12:24:23.228Z,18.9
2022-09-10T12:25:32.405Z,18.9
2022-09-10T12:26:41.572Z,18.8
2022-09-10T12:27:49.762Z,18.7
2022-09-10T12:28:58.940Z,18.8
2022-09-10T12:30:08.107Z,19
2022-09-10T12:31:17.278Z,19.1
2022-09-10T12:32:26.448Z,19.1
2022-09-10T12:33:35.629Z,19.1
2022-09-10T12:34:44.897Z,18.9
2022-09-10T12:35:53.968Z,19
2022-09-10T12:37:03.148Z,18.8
2022-09-10T12:38:12.311Z,18.7
2022-09-10T12:39:21.496Z,18.8
2022-09-10T12:40:30.657Z,18.8
2022-09-10T12:41:39.840Z,18.7
2022-09-10T12:42:48.021Z,18.9
2022-09-10T12:43:57.241Z,18.8
2022-09-10T12:45:06.365Z,18.8
2022-09-10T12:46:15.539Z,18.8
2022-09-10T12:47:24.710Z,18.7
2022-09-10T12:48:33.878Z,18.7
2022-09-10T12:49:43.059Z,18.6
2022-09-10T12:50:52.229Z,18.7
2022-09-10T12:52:01.399Z,18.6
2022-09-10T12:53:10.651Z,18.7
2022-09-10T12:54:19.736Z,18.7
2022-09-10T12:55:28.918Z,18.6
2022-09-10T12:56:38.091Z,18.7
2022-09-10T12:57:46.287Z,18.7
2022-09-10T12:58:55.458Z,18.7
2022-09-10T13:00:04.619Z,18.6
2022-09-10T13:01:13.786Z,18.4
2022-09-10T13:02:22.974Z,18.2
2022-09-10T13:03:32.210Z,18.3
2022-09-10T13:04:41.301Z,18.4
2022-09-10T13:05:50.540Z,18.2
2022-09-10T13:06:59.726Z,18
2022-09-10T13:08:08.827Z,17.9
2022-09-10T13:09:17.997Z,18
2022-09-10T13:10:27.174Z,17.8
2022-09-10T13:11:36.341Z,17.7
2022-09-10T13:12:44.527Z,17.6
2022-09-10T13:13:53.749Z,17.5
2022-09-10T13:15:02.873Z,17.5
2022-09-10T13:16:12.044Z,17.4
2022-09-10T13:17:21.215Z,17.3
2022-09-10T13:18:30.392Z,17.4
2022-09-10T13:19:39.558Z,17.5
2022-09-10T13:20:48.765Z,17.2
2022-09-10T13:21:57.917Z,17
2022-09-10T13:23:07.123Z,17.1
2022-09-10T13:24:16.246Z,17.3
2022-09-10T13:25:24.471Z,17.2
2022-09-10T13:26:32.631Z,17.1
2022-09-10T13:27:41.800Z,17.2
2022-09-10T13:28:50.985Z,17.3
2022-09-10T13:30:00.152Z,17.2
2022-09-10T13:31:09.338Z,17.1
2022-09-10T13:32:17.534Z,17.1
2022-09-10T13:33:25.746Z,17.1
2022-09-10T13:34:34.888Z,17
2022-09-10T13:35:44.052Z,17
2022-09-10T13:36:53.223Z,17
2022-09-10T13:38:02.415Z,17
2022-09-10T13:39:11.579Z,16.9
2022-09-10T13:40:20.743Z,17
2022-09-10T13:41:29.914Z,16.9
2022-09-10T13:42:39.088Z,17
2022-09-10T13:43:48.363Z,17
2022-09-10T13:44:57.543Z,16.9
2022-09-10T13:46:06.610Z,16.9
2022-09-10T13:47:15.775Z,16.9
2022-09-10T13:48:23.964Z,16.9
2022-09-10T13:49:33.136Z,16.8
2022-09-10T13:50:42.387Z,16.9
2022-09-10T13:51:51.515Z,16.9
2022-09-10T13:53:00.687Z,16.9
2022-09-10T13:54:09.838Z,16.9
2022-09-10T13:55:19.001Z,16.9
2022-09-10T13:56:28.175Z,16.8
2022-09-10T13:57:37.358Z,16.9
2022-09-10T13:58:46.516Z,16.9
2022-09-10T13:59:55.697Z,16.9
2022-09-10T14:01:04.939Z,16.9
2022-09-10T14:02:14.044Z,17.1
2022-09-10T14:03:23.257Z,17.2
2022-09-10T14:04:31.395Z,17.1
2022-09-10T14:05:40.572Z,17.2
2022-09-10T14:06:49.752Z,17.3
2022-09-10T14:07:58.918Z,17.2
2022-09-10T14:09:08.092Z,17.1
2022-09-10T14:10:17.271Z,17.1
2022-09-10T14:11:26.432Z,17.3
2022-09-10T14:12:35.627Z,17.6
2022-09-10T14:13:44.784Z,17.6
2022-09-10T14:14:53.972Z,17.6
2022-09-10T14:16:03.124Z,17.7
2022-09-10T14:17:12.295Z,17.7
2022-09-10T14:18:21.480Z,17.7
2022-09-10T14:19:29.661Z,17.7
2022-09-10T14:20:38.830Z,17.7
2022-09-10T14:21:48.022Z,17.6
2022-09-10T14:22:57.185Z,17.6
2022-09-10T14:24:06.393Z,17.5
2022-09-10T14:25:15.538Z,17.5
2022-09-10T14:26:24.716Z,17.5
2022-09-10T14:27:33.875Z,17.6
2022-09-10T14:28:43.046Z,17.8
2022-09-10T14:29:52.257Z,17.7
2022-09-10T14:31:01.389Z,17.7
2022-09-10T14:32:10.559Z,17.8
2022-09-10T14:33:19.732Z,17.8
2022-09-10T14:34:27.932Z,17.9
2022-09-10T14:35:37.097Z,17.9
2022-09-10T14:36:46.277Z,18
2022-09-10T14:37:55.440Z,17.8
2022-09-10T14:39:04.614Z,18
2022-09-10T14:40:13.789Z,17.8
2022-09-10T14:41:22.973Z,17.8
2022-09-10T14:42:32.134Z,17.9
2022-09-10T14:43:41.328Z,17.8
2022-09-10T14:44:50.479Z,17.9
2022-09-10T14:45:59.647Z,17.9
2022-09-10T14:47:08.845Z,17.9
2022-09-10T14:48:18.000Z,17.9
2022-09-10T14:49:26.189Z,17.9
2022-09-10T14:50:35.366Z,17.8
2022-09-10T14:51:44.533Z,17.7
2022-09-10T14:52:53.712Z,17.9
2022-09-10T14:54:01.901Z,17.8
2022-09-10T14:55:11.067Z,17.7
2022-09-10T14:56:20.240Z,17.7
2022-09-10T14:57:29.411Z,17.7
2022-09-10T14:58:38.590Z,17.7
2022-09-10T14:59:47.755Z,17.7
2022-09-10T15:00:56.928Z,17.7
2022-09-10T15:02:06.144Z,17.8
2022-09-10T15:03:15.270Z,17.8
2022-09-10T15:04:24.491Z,17.7
2022-09-10T15:05:33.646Z,17.8
2022-09-10T15:06:42.828Z,17.9
2022-09-10T15:07:51.967Z,17.9
2022-09-10T15:09:00.153Z,18
2022-09-10T15:10:08.348Z,18
2022-09-10T15:11:17.510Z,18.1
2022-09-10T15:12:26.697Z,18.1
2022-09-10T15:13:35.862Z,18.1
2022-09-10T15:14:45.044Z,18.2
2022-09-10T15:15:54.206Z,18.2
2022-09-10T15:17:03.374Z,18.2
2022-09-10T15:18:12.551Z,18.2
2022-09-10T15:19:21.725Z,18.1
2022-09-10T15:20:30.899Z,18.3
2022-09-10T15:21:40.067Z,18.2
2022-09-10T15:22:49.238Z,18.2
2022-09-10T15:23:58.423Z,18.1
2022-09-10T15:25:06.613Z,18
2022-09-10T15:26:15.763Z,17.8
2022-09-10T15:27:24.936Z,17.7
2022-09-10T15:28:34.117Z,17.7
2022-09-10T15:29:43.280Z,17.7
2022-09-10T15:30:52.463Z,17.9
2022-09-10T15:32:01.715Z,18.1
2022-09-10T15:33:09.867Z,18.2
2022-09-10T15:34:18.025Z,18.3
2022-09-10T15:35:26.238Z,18.3
2022-09-10T15:36:34.409Z,18.2
2022-09-10T15:37:43.661Z,18.3
2022-09-10T15:38:52.751Z,18.5